createdAt,value
2016-08-15T00:00:24.758Z,-79
2016-08-15T00:01:24.981Z,-79
2016-08-15T00:02:24.747Z,-79
2016-08-15T00:03:24.827Z,-79
2016-08-15T00:04:24.894Z,-79
2016-08-15T00:05:24.986Z,-79
2016-08-15T00:06:24.926Z,-79
2016-08-15T00:07:24.989Z,-79
2016-08-15T00:08:24.765Z,-79
2016-08-15T00:09:24.852Z,-79
2016-08-15T00:10:24.923Z,-79
2016-08-15T00:11:24.922Z,-79
2016-08-15T00:12:24.846Z,-79
2016-08-15T00:13:24.923Z,-79
2016-08-15T00:14:24.926Z,-79
2016-08-15T00:15:24.860Z,-80
2016-08-15T00:16:24.934Z,-79
2016-08-15T00:17:24.999Z,-79
2016-08-15T00:18:24.949Z,-79
2016-08-15T00:19:24.939Z,-79
2016-08-15T00:20:24.926Z,-79
2016-08-15T00:21:24.949Z,-79
2016-08-15T00:22:24.872Z,-79
2016-08-15T00:23:24.903Z,-79
2016-08-15T00:24:25.074Z,-79
2016-08-15T00:25:24.965Z,-80
2016-08-15T00:26:24.898Z,-79
2016-08-15T00:27:25.053Z,-79
2016-08-15T00:28:24.895Z,-79
2016-08-15T00:29:25.067Z,-79
2016-08-15T00:30:24.977Z,-79
2016-08-15T00:31:24.898Z,-79
2016-08-15T00:32:24.923Z,-79
2016-08-15T00:33:24.985Z,-79
2016-08-15T00:34:25.014Z,-79
2016-08-15T00:35:25.004Z,-79
2016-08-15T00:36:25.077Z,-79
2016-08-15T00:37:24.931Z,-79
2016-08-15T00:38:25.016Z,-79
2016-08-15T00:39:24.938Z,-79
2016-08-15T00:40:24.954Z,-79
2016-08-15T00:41:24.935Z,-79
2016-08-15T00:42:25.012Z,-79
2016-08-15T00:43:25.013Z,-79
2016-08-15T00:44:25.078Z,-79
2016-08-15T00:45:25.130Z,-79
2016-08-15T00:46:25.014Z,-79
2016-08-15T00:47:25.016Z,-79
2016-08-15T00:48:25.025Z,-79
2016-08-15T00:49:24.873Z,-79
2016-08-15T00:50:25.115Z,-79
2016-08-15T00:51:25.036Z,-79
2016-08-15T00:52:25.030Z,-79
2016-08-15T00:53:25.126Z,-79
2016-08-15T00:54:24.967Z,-79
2016-08-15T00:55:25.024Z,-79
2016-08-15T00:56:25.004Z,-79
2016-08-15T00:57:25.063Z,-79
2016-08-15T00:58:25.132Z,-79
2016-08-15T00:59:25.058Z,-79
2016-08-15T01:00:25.010Z,-79
2016-08-15T01:01:25.064Z,-79
2016-08-15T01:02:25.003Z,-79
2016-08-15T01:03:24.981Z,-79
2016-08-15T01:04:25.006Z,-79
2016-08-15T01:05:25.008Z,-78
2016-08-15T01:06:25.083Z,-79
2016-08-15T01:07:25.076Z,-79
2016-08-15T01:08:25.022Z,-79
2016-08-15T01:09:24.948Z,-79
2016-08-15T01:10:24.938Z,-79
2016-08-15T01:11:25.102Z,-79
2016-08-15T01:12:25.030Z,-78
2016-08-15T01:13:25.020Z,-79
2016-08-15T01:14:25.090Z,-79
2016-08-15T01:15:25.028Z,-79
2016-08-15T01:16:25.036Z,-79
2016-08-15T01:17:25.193Z,-79
2016-08-15T01:18:25.303Z,-79
2016-08-15T01:19:25.048Z,-79
2016-08-15T01:20:25.104Z,-79
2016-08-15T01:21:25.030Z,-79
2016-08-15T01:22:25.121Z,-79
2016-08-15T01:23:25.117Z,-79
2016-08-15T01:24:25.193Z,-79
2016-08-15T01:25:25.224Z,-79
2016-08-15T01:26:25.059Z,-79
2016-08-15T01:27:25.122Z,-79
2016-08-15T01:28:24.993Z,-79
2016-08-15T01:29:25.080Z,-79
2016-08-15T01:30:25.088Z,-79
2016-08-15T01:31:25.161Z,-79
2016-08-15T01:32:25.068Z,-79
2016-08-15T01:33:25.153Z,-79
2016-08-15T01:34:25.071Z,-79
2016-08-15T01:35:25.157Z,-79
2016-08-15T01:36:25.164Z,-79
2016-08-15T01:37:25.091Z,-79
2016-08-15T01:38:25.099Z,-79
2016-08-15T01:39:25.102Z,-79
2016-08-15T01:40:25.098Z,-79
2016-08-15T01:41:25.016Z,-79
2016-08-15T01:42:25.180Z,-79
2016-08-15T01:43:25.113Z,-79
2016-08-15T01:44:25.258Z,-79
2016-08-15T01:45:25.259Z,-79
2016-08-15T01:46:25.109Z,-79
2016-08-15T01:47:25.038Z,-79
2016-08-15T01:48:25.279Z,-79
2016-08-15T01:49:25.063Z,-79
2016-08-15T01:50:25.119Z,-79
2016-08-15T01:51:25.139Z,-79
2016-08-15T01:52:25.307Z,-79
2016-08-15T01:53:25.274Z,-79
2016-08-15T01:54:25.155Z,-79
2016-08-15T01:55:25.287Z,-79
2016-08-15T01:56:25.138Z,-79
2016-08-15T01:57:25.241Z,-79
2016-08-15T01:58:25.232Z,-79
2016-08-15T01:59:25.240Z,-79
2016-08-15T02:00:25.157Z,-79
2016-08-15T02:01:25.178Z,-79
2016-08-15T02:02:25.252Z,-79
2016-08-15T02:03:25.098Z,-79
2016-08-15T02:04:25.231Z,-79
2016-08-15T02:05:25.260Z,-79
2016-08-15T02:06:25.325Z,-79
2016-08-15T02:07:25.346Z,-79
2016-08-15T02:08:25.206Z,-79
2016-08-15T02:09:25.183Z,-79
2016-08-15T02:10:25.096Z,-79
2016-08-15T02:11:25.263Z,-79
2016-08-15T02:12:25.187Z,-79
2016-08-15T02:13:25.354Z,-79
2016-08-15T02:14:25.198Z,-79
2016-08-15T02:15:25.109Z,-79
2016-08-15T02:16:25.334Z,-79
2016-08-15T02:17:25.356Z,-80
2016-08-15T02:18:25.317Z,-79
2016-08-15T02:19:25.119Z,-79
2016-08-15T02:20:25.284Z,-79
2016-08-15T02:21:25.209Z,-79
2016-08-15T02:22:25.285Z,-79
2016-08-15T02:23:25.205Z,-79
2016-08-15T02:24:25.299Z,-79
2016-08-15T02:25:25.215Z,-79
2016-08-15T02:26:25.386Z,-79
2016-08-15T02:27:25.153Z,-79
2016-08-15T02:28:25.315Z,-79
2016-08-15T02:29:25.157Z,-79
2016-08-15T02:30:25.238Z,-79
2016-08-15T02:31:25.316Z,-79
2016-08-15T02:32:25.341Z,-79
2016-08-15T02:33:25.167Z,-79
2016-08-15T02:34:25.245Z,-79
2016-08-15T02:35:25.312Z,-80
2016-08-15T02:36:25.259Z,-79
2016-08-15T02:37:25.255Z,-79
2016-08-15T02:38:25.324Z,-79
2016-08-15T02:39:25.281Z,-79
2016-08-15T02:40:25.411Z,-80
2016-08-15T02:41:25.340Z,-79
2016-08-15T02:42:25.347Z,-79
2016-08-15T02:43:25.284Z,-79
2016-08-15T02:44:25.279Z,-79
2016-08-15T02:45:25.433Z,-79
2016-08-15T02:46:25.197Z,-80
2016-08-15T02:47:25.206Z,-79
2016-08-15T02:48:25.444Z,-79
2016-08-15T02:49:25.447Z,-79
2016-08-15T02:50:25.369Z,-79
2016-08-15T02:51:25.295Z,-79
2016-08-15T02:52:25.225Z,-79
2016-08-15T02:53:25.367Z,-79
2016-08-15T02:54:25.379Z,-79
2016-08-15T02:55:25.375Z,-79
2016-08-15T02:56:25.302Z,-79
2016-08-15T02:57:25.481Z,-79
2016-08-15T02:58:25.457Z,-79
2016-08-15T02:59:25.326Z,-80
2016-08-15T03:00:25.244Z,-79
2016-08-15T03:01:25.415Z,-79
2016-08-15T03:02:25.339Z,-79
2016-08-15T03:03:25.369Z,-79
2016-08-15T03:04:25.404Z,-79
2016-08-15T03:05:25.421Z,-79
2016-08-15T03:06:25.333Z,-79
2016-08-15T03:07:25.423Z,-79
2016-08-15T03:08:25.438Z,-79
2016-08-15T03:09:25.432Z,-79
2016-08-15T03:10:25.449Z,-79
2016-08-15T03:11:25.517Z,-80
2016-08-15T03:12:25.357Z,-80
2016-08-15T03:13:25.353Z,-79
2016-08-15T03:14:25.367Z,-79
2016-08-15T03:15:25.295Z,-79
2016-08-15T03:16:25.458Z,-79
2016-08-15T03:17:25.371Z,-79
2016-08-15T03:18:25.552Z,-79
2016-08-15T03:19:25.527Z,-80
2016-08-15T03:20:25.371Z,-79
2016-08-15T03:21:25.381Z,-79
2016-08-15T03:22:25.303Z,-79
2016-08-15T03:23:25.473Z,-79
2016-08-15T03:24:25.459Z,-79
2016-08-15T03:25:25.317Z,-79
2016-08-15T03:26:25.393Z,-80
2016-08-15T03:27:25.403Z,-79
2016-08-15T03:28:25.333Z,-79
2016-08-15T03:29:25.400Z,-80
2016-08-15T03:30:25.492Z,-80
2016-08-15T03:31:25.391Z,-79
2016-08-15T03:32:25.405Z,-79
2016-08-15T03:33:25.403Z,-79
2016-08-15T03:34:25.424Z,-79
2016-08-15T03:35:25.417Z,-79
2016-08-15T03:36:25.486Z,-79
2016-08-15T03:37:25.444Z,-79
2016-08-15T03:38:25.427Z,-79
2016-08-15T03:39:25.500Z,-79
2016-08-15T03:40:25.497Z,-79
2016-08-15T03:41:25.443Z,-79
2016-08-15T03:42:25.513Z,-79
2016-08-15T03:43:25.452Z,-80
2016-08-15T03:44:25.528Z,-80
2016-08-15T03:45:25.518Z,-79
2016-08-15T03:46:25.373Z,-79
2016-08-15T03:47:25.603Z,-79
2016-08-15T03:48:25.603Z,-79
2016-08-15T03:49:25.533Z,-79
2016-08-15T03:50:25.537Z,-79
2016-08-15T03:51:25.534Z,-79
2016-08-15T03:52:25.555Z,-79
2016-08-15T03:53:25.468Z,-80
2016-08-15T03:54:25.545Z,-79
2016-08-15T03:55:25.557Z,-79
2016-08-15T03:56:25.546Z,-79
2016-08-15T03:57:25.402Z,-79
2016-08-15T03:58:25.482Z,-79
2016-08-15T03:59:25.564Z,-79
2016-08-15T04:00:25.484Z,-79
2016-08-15T04:01:25.587Z,-80
2016-08-15T04:02:25.422Z,-80
2016-08-15T04:03:25.505Z,-79
2016-08-15T04:04:25.501Z,-80
2016-08-15T04:05:25.579Z,-80
2016-08-15T04:06:25.586Z,-80
2016-08-15T04:07:25.660Z,-80
2016-08-15T04:08:25.593Z,-80
2016-08-15T04:09:25.447Z,-80
2016-08-15T04:10:25.543Z,-80
2016-08-15T04:11:25.632Z,-80
2016-08-15T04:12:25.514Z,-80
2016-08-15T04:13:25.548Z,-80
2016-08-15T04:14:25.604Z,-80
2016-08-15T04:15:25.618Z,-79
2016-08-15T04:16:25.460Z,-79
2016-08-15T04:17:25.550Z,-79
2016-08-15T04:18:25.540Z,-79
2016-08-15T04:19:25.576Z,-80
2016-08-15T04:20:25.634Z,-80
2016-08-15T04:21:25.547Z,-79
2016-08-15T04:22:25.623Z,-80
2016-08-15T04:23:25.629Z,-79
2016-08-15T04:24:25.639Z,-79
2016-08-15T04:25:25.480Z,-79
2016-08-15T04:26:25.712Z,-79
2016-08-15T04:27:25.715Z,-79
2016-08-15T04:28:25.647Z,-79
2016-08-15T04:29:25.645Z,-80
2016-08-15T04:30:25.724Z,-80
2016-08-15T04:31:25.578Z,-79
2016-08-15T04:32:25.579Z,-79
2016-08-15T04:33:25.498Z,-80
2016-08-15T04:34:25.592Z,-79
2016-08-15T04:35:25.598Z,-79
2016-08-15T04:36:25.596Z,-79
2016-08-15T04:37:25.675Z,-79
2016-08-15T04:38:25.524Z,-80
2016-08-15T04:39:25.612Z,-79
2016-08-15T04:40:25.602Z,-79
2016-08-15T04:41:25.602Z,-79
2016-08-15T04:42:25.688Z,-79
2016-08-15T04:43:25.677Z,-80
2016-08-15T04:44:25.766Z,-79
2016-08-15T04:45:25.706Z,-79
2016-08-15T04:46:25.717Z,-79
2016-08-15T04:47:25.705Z,-80
2016-08-15T04:48:25.567Z,-79
2016-08-15T04:49:25.551Z,-80
2016-08-15T04:50:25.571Z,-80
2016-08-15T04:51:25.580Z,-79
2016-08-15T04:52:25.749Z,-85
2016-08-15T04:53:25.737Z,-85
2016-08-15T04:54:25.805Z,-85
2016-08-15T04:55:25.805Z,-85
2016-08-15T04:56:25.799Z,-85
2016-08-15T04:57:25.673Z,-85
2016-08-15T04:58:25.670Z,-86
2016-08-15T04:59:25.729Z,-85
2016-08-15T05:00:25.753Z,-85
2016-08-15T05:01:25.755Z,-85
2016-08-15T05:02:26.440Z,-85
2016-08-15T05:03:25.700Z,-85
2016-08-15T05:04:25.678Z,-86
2016-08-15T05:05:25.681Z,-85
2016-08-15T05:06:25.781Z,-85
2016-08-15T05:07:25.830Z,-85
2016-08-15T05:08:25.775Z,-85
2016-08-15T05:09:25.625Z,-85
2016-08-15T05:10:25.894Z,-85
2016-08-15T05:11:25.875Z,-86
2016-08-15T05:12:25.854Z,-85
2016-08-15T05:13:25.776Z,-85
2016-08-15T05:14:25.772Z,-85
2016-08-15T05:15:25.704Z,-85
2016-08-15T05:16:25.803Z,-85
2016-08-15T05:17:25.917Z,-85
2016-08-15T05:18:25.740Z,-85
2016-08-15T05:19:25.911Z,-85
2016-08-15T05:20:25.815Z,-85
2016-08-15T05:21:25.790Z,-85
2016-08-15T05:22:25.792Z,-85
2016-08-15T05:23:25.807Z,-85
2016-08-15T05:24:25.735Z,-85
2016-08-15T05:25:25.814Z,-85
2016-08-15T05:26:25.813Z,-85
2016-08-15T05:27:25.802Z,-85
2016-08-15T05:28:25.840Z,-85
2016-08-15T05:29:25.838Z,-85
2016-08-15T05:30:25.757Z,-85
2016-08-15T05:31:25.836Z,-85
2016-08-15T05:32:25.832Z,-85
2016-08-15T05:33:25.774Z,-85
2016-08-15T05:34:25.931Z,-85
2016-08-15T05:35:25.848Z,-85
2016-08-15T05:36:25.782Z,-85
2016-08-15T05:37:25.883Z,-85
2016-08-15T05:38:25.885Z,-85
2016-08-15T05:39:25.869Z,-85
2016-08-15T05:40:25.797Z,-86
2016-08-15T05:41:25.885Z,-85
2016-08-15T05:42:25.806Z,-86
2016-08-15T05:43:25.789Z,-85
2016-08-15T05:44:25.799Z,-85
2016-08-15T05:45:25.959Z,-85
2016-08-15T05:46:25.962Z,-85
2016-08-15T05:47:25.797Z,-85
2016-08-15T05:48:25.874Z,-85
2016-08-15T05:49:25.876Z,-85
2016-08-15T05:50:25.821Z,-85
2016-08-15T05:51:25.886Z,-85
2016-08-15T05:52:25.908Z,-85
2016-08-15T05:53:25.911Z,-85
2016-08-15T05:54:25.927Z,-85
2016-08-15T05:55:25.948Z,-85
2016-08-15T05:56:25.771Z,-85
2016-08-15T05:57:25.827Z,-84
2016-08-15T05:58:25.904Z,-84
2016-08-15T05:59:25.860Z,-85
2016-08-15T06:00:25.852Z,-85
2016-08-15T06:01:25.916Z,-85
2016-08-15T06:02:25.946Z,-85
2016-08-15T06:03:25.834Z,-85
2016-08-15T06:04:25.892Z,-84
2016-08-15T06:05:26.002Z,-85
2016-08-15T06:06:26.010Z,-85
2016-08-15T06:07:26.041Z,-85
2016-08-15T06:08:25.806Z,-85
2016-08-15T06:09:25.941Z,-85
2016-08-15T06:10:25.947Z,-85
2016-08-15T06:11:25.926Z,-85
2016-08-15T06:12:25.864Z,-85
2016-08-15T06:13:26.020Z,-85
2016-08-15T06:14:25.948Z,-85
2016-08-15T06:15:25.894Z,-85
2016-08-15T06:16:26.050Z,-85
2016-08-15T06:17:25.894Z,-85
2016-08-15T06:18:25.808Z,-85
2016-08-15T06:19:26.085Z,-85
2016-08-15T06:20:25.973Z,-84
2016-08-15T06:21:25.818Z,-85
2016-08-15T06:22:26.044Z,-84
2016-08-15T06:23:26.289Z,-85
2016-08-15T06:24:25.853Z,-85
2016-08-15T06:25:25.851Z,-85
2016-08-15T06:26:25.946Z,-85
2016-08-15T06:27:26.389Z,-85
2016-08-15T06:28:25.934Z,-84
2016-08-15T06:29:25.861Z,-85
2016-08-15T06:30:25.834Z,-85
2016-08-15T06:31:25.863Z,-84
2016-08-15T06:32:26.014Z,-85
2016-08-15T06:33:26.080Z,-85
2016-08-15T06:34:26.017Z,-85
2016-08-15T06:35:25.951Z,-85
2016-08-15T06:36:25.977Z,-85
2016-08-15T06:37:26.039Z,-84
2016-08-15T06:38:26.103Z,-84
2016-08-15T06:39:26.046Z,-85
2016-08-15T06:40:26.617Z,-85
2016-08-15T06:41:26.107Z,-84
2016-08-15T06:42:25.964Z,-85
2016-08-15T06:43:26.093Z,-86
2016-08-15T06:44:26.104Z,-86
2016-08-15T06:45:26.030Z,-85
2016-08-15T06:46:26.077Z,-85
2016-08-15T06:47:25.987Z,-85
2016-08-15T06:48:25.987Z,-85
2016-08-15T06:49:26.094Z,-85
2016-08-15T06:50:26.144Z,-85
2016-08-15T06:51:25.986Z,-85
2016-08-15T06:52:25.900Z,-85
2016-08-15T06:53:25.995Z,-85
2016-08-15T06:54:26.147Z,-85
2016-08-15T06:55:26.001Z,-85
2016-08-15T06:56:26.085Z,-85
2016-08-15T06:57:26.079Z,-85
2016-08-15T06:58:26.094Z,-85
2016-08-15T06:59:26.119Z,-85
2016-08-15T07:00:26.002Z,-85
2016-08-15T07:01:25.944Z,-85
2016-08-15T07:02:26.012Z,-85
2016-08-15T07:03:26.082Z,-85
2016-08-15T07:04:26.141Z,-84
2016-08-15T07:05:26.034Z,-84
2016-08-15T07:06:26.016Z,-86
2016-08-15T07:07:26.179Z,-85
2016-08-15T07:08:26.032Z,-85
2016-08-15T07:09:26.108Z,-85
2016-08-15T07:10:26.030Z,-85
2016-08-15T07:11:26.014Z,-85
2016-08-15T07:12:25.976Z,-85
2016-08-15T07:13:26.219Z,-85
2016-08-15T07:14:26.111Z,-85
2016-08-15T07:15:26.100Z,-84
2016-08-15T07:16:26.398Z,-85
2016-08-15T07:17:26.350Z,-85
2016-08-15T07:18:26.488Z,-84
2016-08-15T07:19:26.081Z,-85
2016-08-15T07:20:26.452Z,-85
2016-08-15T07:21:26.020Z,-85
2016-08-15T07:22:26.060Z,-85
2016-08-15T07:23:26.257Z,-84
2016-08-15T07:24:26.242Z,-85
2016-08-15T07:25:26.143Z,-85
2016-08-15T07:26:26.148Z,-85
2016-08-15T07:27:26.165Z,-85
2016-08-15T07:28:26.010Z,-85
2016-08-15T07:29:26.184Z,-85
2016-08-15T07:30:26.108Z,-85
2016-08-15T07:31:26.282Z,-85
2016-08-15T07:32:26.103Z,-85
2016-08-15T07:33:26.041Z,-85
2016-08-15T07:34:26.106Z,-85
2016-08-15T07:35:26.056Z,-85
2016-08-15T07:36:26.112Z,-85
2016-08-15T07:37:26.112Z,-85
2016-08-15T07:38:26.050Z,-85
2016-08-15T07:39:26.142Z,-85
2016-08-15T07:40:26.208Z,-86
2016-08-15T07:41:26.223Z,-86
2016-08-15T07:42:26.133Z,-85
2016-08-15T07:43:26.323Z,-85
2016-08-15T07:44:26.139Z,-85
2016-08-15T07:45:26.234Z,-85
2016-08-15T07:46:26.235Z,-85
2016-08-15T07:47:26.174Z,-86
2016-08-15T07:48:26.153Z,-87
2016-08-15T07:49:26.149Z,-86
2016-08-15T07:50:26.238Z,-85
2016-08-15T07:51:26.118Z,-84
2016-08-15T07:52:26.349Z,-86
2016-08-15T07:53:26.241Z,-85
2016-08-15T07:54:26.294Z,-86
2016-08-15T07:55:26.222Z,-85
2016-08-15T07:56:26.196Z,-85
2016-08-15T07:57:26.246Z,-85
2016-08-15T07:58:26.273Z,-85
2016-08-15T07:59:26.123Z,-84
2016-08-15T08:00:26.182Z,-85
2016-08-15T08:01:26.199Z,-85
2016-08-15T08:02:28.795Z,-85
2016-08-15T08:03:26.200Z,-85
2016-08-15T08:04:26.585Z,-85
2016-08-15T08:05:26.211Z,-85
2016-08-15T08:06:26.253Z,-86
2016-08-15T08:07:26.247Z,-85
2016-08-15T08:08:27.502Z,-85
2016-08-15T08:09:26.389Z,-86
2016-08-15T08:10:29.369Z,-85
2016-08-15T08:11:26.269Z,-85
2016-08-15T08:12:29.041Z,-85
2016-08-15T08:13:26.553Z,-85
2016-08-15T08:14:27.412Z,-85
2016-08-15T08:15:26.325Z,-86
2016-08-15T08:16:26.343Z,-86
2016-08-15T08:17:26.260Z,-85
2016-08-15T08:18:26.432Z,-85
2016-08-15T08:19:26.490Z,-85
2016-08-15T08:20:26.551Z,-89
2016-08-15T08:21:26.276Z,-91
2016-08-15T08:22:26.319Z,-88
2016-08-15T08:23:26.246Z,-88
2016-08-15T08:24:26.199Z,-88
2016-08-15T08:25:26.223Z,-89
2016-08-15T08:26:26.354Z,-89
2016-08-15T08:27:26.409Z,-86
2016-08-15T08:28:26.335Z,-86
2016-08-15T08:29:26.386Z,-87
2016-08-15T08:30:26.189Z,-86
2016-08-15T08:31:26.279Z,-87
2016-08-15T08:32:26.251Z,-86
2016-08-15T08:33:26.336Z,-87
2016-08-15T08:34:26.339Z,-87
2016-08-15T08:35:28.739Z,-86
2016-08-15T08:36:26.302Z,-87
2016-08-15T08:37:27.138Z,-87
2016-08-15T08:38:26.385Z,-87
2016-08-15T08:39:26.912Z,-86
2016-08-15T08:40:26.792Z,-87
2016-08-15T08:41:26.470Z,-87
2016-08-15T08:42:26.465Z,-87
2016-08-15T08:43:26.490Z,-86
2016-08-15T08:44:27.678Z,-86
2016-08-15T08:45:26.408Z,-86
2016-08-15T08:46:26.532Z,-86
2016-08-15T08:47:26.335Z,-87
2016-08-15T08:48:26.272Z,-87
2016-08-15T08:49:26.322Z,-86
2016-08-15T08:50:26.363Z,-86
2016-08-15T08:51:26.431Z,-87
2016-08-15T08:52:26.346Z,-86
2016-08-15T08:53:26.456Z,-87
2016-08-15T08:54:27.871Z,-87
2016-08-15T08:55:27.786Z,-86
2016-08-15T08:56:26.354Z,-87
2016-08-15T08:57:26.404Z,-87
2016-08-15T08:58:26.378Z,-86
2016-08-15T08:59:26.392Z,-87
2016-08-15T09:00:26.395Z,-86
2016-08-15T09:01:26.438Z,-85
2016-08-15T09:02:26.313Z,-87
2016-08-15T09:03:26.552Z,-86
2016-08-15T09:04:26.546Z,-86
2016-08-15T09:05:28.701Z,-87
2016-08-15T09:06:28.108Z,-87
2016-08-15T09:07:27.812Z,-86
2016-08-15T09:08:26.462Z,-87
2016-08-15T09:09:26.423Z,-86
2016-08-15T09:10:28.603Z,-87
2016-08-15T09:11:26.567Z,-86
2016-08-15T09:12:27.446Z,-86
2016-08-15T09:13:26.501Z,-87
2016-08-15T09:14:27.406Z,-86
2016-08-15T09:15:26.435Z,-86
2016-08-15T09:16:26.533Z,-87
2016-08-15T09:17:26.425Z,-85
2016-08-15T09:18:26.526Z,-86
2016-08-15T09:19:26.475Z,-86
2016-08-15T09:20:26.655Z,-87
2016-08-15T09:21:26.502Z,-87
2016-08-15T09:22:26.427Z,-87
2016-08-15T09:23:26.576Z,-86
2016-08-15T09:24:26.509Z,-85
2016-08-15T09:25:26.510Z,-86
2016-08-15T09:26:26.529Z,-85
2016-08-15T09:27:26.523Z,-86
2016-08-15T09:28:27.553Z,-86
2016-08-15T09:29:26.592Z,-86
2016-08-15T09:30:26.680Z,-86
2016-08-15T09:31:27.825Z,-87
2016-08-15T09:32:26.811Z,-87
2016-08-15T09:33:26.621Z,-87
2016-08-15T09:34:26.793Z,-88
2016-08-15T09:35:27.255Z,-87
2016-08-15T09:36:26.616Z,-87
2016-08-15T09:37:26.566Z,-87
2016-08-15T09:38:26.539Z,-86
2016-08-15T09:39:26.472Z,-86
2016-08-15T09:40:26.673Z,-87
2016-08-15T09:41:26.476Z,-86
2016-08-15T09:42:26.528Z,-87
2016-08-15T09:43:26.591Z,-86
2016-08-15T09:44:26.551Z,-87
2016-08-15T09:45:26.423Z,-86
2016-08-15T09:46:26.539Z,-86
2016-08-15T09:47:26.545Z,-86
2016-08-15T09:48:26.524Z,-87
2016-08-15T09:49:26.523Z,-87
2016-08-15T09:50:26.636Z,-87
2016-08-15T09:51:26.534Z,-86
2016-08-15T09:52:26.525Z,-87
2016-08-15T09:53:26.507Z,-87
2016-08-15T09:54:26.609Z,-86
2016-08-15T09:55:26.535Z,-87
2016-08-15T09:56:26.448Z,-87
2016-08-15T09:57:26.633Z,-87
2016-08-15T09:58:26.726Z,-88
2016-08-15T09:59:26.664Z,-88
2016-08-15T10:00:26.755Z,-88
2016-08-15T10:01:26.723Z,-87
2016-08-15T10:02:26.730Z,-88
2016-08-15T10:03:26.771Z,-88
2016-08-15T10:04:26.644Z,-89
2016-08-15T10:05:26.587Z,-87
2016-08-15T10:06:26.501Z,-88
2016-08-15T10:07:26.663Z,-88
2016-08-15T10:08:26.738Z,-87
2016-08-15T10:09:26.502Z,-87
2016-08-15T10:10:26.584Z,-87
2016-08-15T10:11:26.711Z,-88
2016-08-15T10:12:26.695Z,-88
2016-08-15T10:13:26.514Z,-87
2016-08-15T10:14:26.684Z,-87
2016-08-15T10:15:26.758Z,-88
2016-08-15T10:16:26.539Z,-87
2016-08-15T10:17:26.827Z,-87
2016-08-15T10:18:26.850Z,-87
2016-08-15T10:20:26.686Z,-88
2016-08-15T10:21:26.811Z,-88
2016-08-15T10:22:27.288Z,-88
2016-08-15T10:23:26.757Z,-87
2016-08-15T10:24:26.756Z,-87
2016-08-15T10:25:26.657Z,-89
2016-08-15T10:26:26.780Z,-87
2016-08-15T10:27:26.561Z,-86
2016-08-15T10:28:26.704Z,-87
2016-08-15T10:29:26.821Z,-88
2016-08-15T10:30:26.701Z,-87
2016-08-15T10:31:26.712Z,-87
2016-08-15T10:32:36.903Z,-87
2016-08-15T10:33:26.572Z,-87
2016-08-15T10:34:26.647Z,-85
2016-08-15T10:35:27.697Z,-85
2016-08-15T10:36:27.354Z,-85
2016-08-15T10:37:26.751Z,-85
2016-08-15T10:38:26.673Z,-85
2016-08-15T10:39:26.807Z,-85
2016-08-15T10:40:26.663Z,-85
2016-08-15T10:41:26.757Z,-85
2016-08-15T10:42:26.662Z,-85
2016-08-15T10:43:26.735Z,-84
2016-08-15T10:44:26.601Z,-85
2016-08-15T10:45:26.868Z,-87
2016-08-15T10:46:26.851Z,-86
2016-08-15T10:47:26.800Z,-87
2016-08-15T10:48:26.760Z,-86
2016-08-15T10:49:26.799Z,-88
2016-08-15T10:50:26.777Z,-86
2016-08-15T10:51:26.682Z,-87
2016-08-15T10:52:26.801Z,-86
2016-08-15T10:53:26.808Z,-86
2016-08-15T10:54:26.793Z,-88
2016-08-15T10:55:26.782Z,-88
2016-08-15T10:56:26.847Z,-89
2016-08-15T10:57:26.831Z,-89
2016-08-15T10:58:26.785Z,-88
2016-08-15T10:59:26.906Z,-89
2016-08-15T11:00:26.714Z,-89
2016-08-15T11:01:26.897Z,-88
2016-08-15T11:02:26.823Z,-87
2016-08-15T11:03:26.740Z,-88
2016-08-15T11:04:26.841Z,-89
2016-08-15T11:05:26.718Z,-90
2016-08-15T11:06:26.744Z,-90
2016-08-15T11:07:26.822Z,-89
2016-08-15T11:08:27.551Z,-89
2016-08-15T11:09:27.854Z,-88
2016-08-15T11:10:26.812Z,-89
2016-08-15T11:11:26.943Z,-88
2016-08-15T11:12:26.908Z,-89
2016-08-15T11:13:26.863Z,-88
2016-08-15T11:14:26.935Z,-90
2016-08-15T11:15:26.843Z,-88
2016-08-15T11:16:27.366Z,-87
2016-08-15T11:17:26.854Z,-75
2016-08-15T11:18:26.847Z,-76
2016-08-15T11:19:26.767Z,-81
2016-08-15T11:20:26.796Z,-81
2016-08-15T11:21:27.117Z,-81
2016-08-15T11:22:26.773Z,-81
2016-08-15T11:23:26.774Z,-79
2016-08-15T11:24:26.776Z,-79
2016-08-15T11:25:26.924Z,-79
2016-08-15T11:26:26.829Z,-80
2016-08-15T11:27:26.883Z,-79
2016-08-15T11:28:27.021Z,-79
2016-08-15T11:29:26.882Z,-80
2016-08-15T11:30:26.811Z,-80
2016-08-15T11:31:26.888Z,-80
2016-08-15T11:32:26.897Z,-80
2016-08-15T11:33:26.842Z,-80
2016-08-15T11:34:26.821Z,-82
2016-08-15T11:35:26.931Z,-81
2016-08-15T11:36:26.737Z,-81
2016-08-15T11:37:26.833Z,-80
2016-08-15T11:38:26.863Z,-80
2016-08-15T11:39:26.849Z,-80
2016-08-15T11:40:27.349Z,-81
2016-08-15T11:41:26.837Z,-80
2016-08-15T11:42:26.922Z,-80
2016-08-15T11:43:26.883Z,-80
2016-08-15T11:44:26.975Z,-80
2016-08-15T11:45:26.863Z,-79
2016-08-15T11:46:27.004Z,-79
2016-08-15T11:47:26.853Z,-78
2016-08-15T11:48:27.031Z,-79
2016-08-15T11:49:27.039Z,-79
2016-08-15T11:50:27.217Z,-79
2016-08-15T11:51:27.279Z,-79
2016-08-15T11:52:26.935Z,-80
2016-08-15T11:53:26.955Z,-79
2016-08-15T11:54:26.883Z,-80
2016-08-15T11:55:26.965Z,-80
2016-08-15T11:56:27.120Z,-79
2016-08-15T11:57:26.989Z,-81
2016-08-15T11:58:26.888Z,-80
2016-08-15T11:59:26.939Z,-81
2016-08-15T12:00:27.007Z,-80
2016-08-15T12:01:27.004Z,-80
2016-08-15T12:02:26.963Z,-80
2016-08-15T12:03:27.015Z,-81
2016-08-15T12:04:26.837Z,-81
2016-08-15T12:05:26.983Z,-81
2016-08-15T12:06:27.060Z,-80
2016-08-15T12:07:26.994Z,-80
2016-08-15T12:08:26.978Z,-80
2016-08-15T12:09:27.097Z,-80
2016-08-15T12:10:26.982Z,-80
2016-08-15T12:11:26.989Z,-82
2016-08-15T12:12:26.990Z,-81
2016-08-15T12:13:27.024Z,-81
2016-08-15T12:14:26.933Z,-81
2016-08-15T12:15:27.106Z,-80
2016-08-15T12:16:27.039Z,-80
2016-08-15T12:17:27.040Z,-80
2016-08-15T12:18:26.976Z,-80
2016-08-15T12:19:26.866Z,-80
2016-08-15T12:20:26.971Z,-80
2016-08-15T12:21:28.962Z,-81
2016-08-15T12:22:27.148Z,-80
2016-08-15T12:23:27.046Z,-80
2016-08-15T12:24:26.871Z,-79
2016-08-15T12:25:26.964Z,-80
2016-08-15T12:26:27.080Z,-80
2016-08-15T12:27:27.117Z,-80
2016-08-15T12:28:27.031Z,-79
2016-08-15T12:29:27.046Z,-79
2016-08-15T12:30:26.988Z,-80
2016-08-15T12:31:27.180Z,-78
2016-08-15T12:32:27.067Z,-81
2016-08-15T12:33:27.062Z,-80
2016-08-15T12:34:27.032Z,-81
2016-08-15T12:35:27.064Z,-80
2016-08-15T12:36:26.993Z,-81
2016-08-15T12:37:27.065Z,-82
2016-08-15T12:38:26.923Z,-81
2016-08-15T12:39:26.992Z,-81
2016-08-15T12:40:27.105Z,-81
2016-08-15T12:41:27.154Z,-81
2016-08-15T12:42:26.947Z,-81
2016-08-15T12:43:27.023Z,-82
2016-08-15T12:44:27.025Z,-81
2016-08-15T12:45:26.935Z,-82
2016-08-15T12:46:27.264Z,-82
2016-08-15T12:47:26.961Z,-81
2016-08-15T12:48:27.118Z,-82
2016-08-15T12:49:27.126Z,-82
2016-08-15T12:50:27.115Z,-81
2016-08-15T12:51:27.130Z,-81
2016-08-15T12:52:27.046Z,-82
2016-08-15T12:53:27.047Z,-81
2016-08-15T12:54:26.976Z,-81
2016-08-15T12:55:27.120Z,-81
2016-08-15T12:56:27.034Z,-81
2016-08-15T12:57:27.085Z,-82
2016-08-15T12:58:27.141Z,-81
2016-08-15T12:59:27.147Z,-81
2016-08-15T13:00:27.166Z,-81
2016-08-15T13:02:27.087Z,-81
2016-08-15T13:03:27.142Z,-81
2016-08-15T13:04:26.987Z,-81
2016-08-15T13:05:27.271Z,-81
2016-08-15T13:06:27.078Z,-81
2016-08-15T13:07:27.245Z,-80
2016-08-15T13:08:27.104Z,-81
2016-08-15T13:09:27.251Z,-81
2016-08-15T13:10:27.123Z,-81
2016-08-15T13:11:27.985Z,-80
2016-08-15T13:12:27.273Z,-81
2016-08-15T13:13:27.167Z,-80
2016-08-15T13:14:27.793Z,-82
2016-08-15T13:15:27.119Z,-82
2016-08-15T13:16:27.183Z,-81
2016-08-15T13:17:27.159Z,-80
2016-08-15T13:18:27.116Z,-81
2016-08-15T13:19:27.300Z,-81
2016-08-15T13:20:27.131Z,-81
2016-08-15T13:21:27.206Z,-81
2016-08-15T13:22:27.060Z,-81
2016-08-15T13:23:27.132Z,-81
2016-08-15T13:24:27.170Z,-81
2016-08-15T13:25:27.219Z,-81
2016-08-15T13:26:27.306Z,-81
2016-08-15T13:27:27.245Z,-81
2016-08-15T13:28:27.190Z,-81
2016-08-15T13:29:27.284Z,-81
2016-08-15T13:30:27.318Z,-80
2016-08-15T13:31:27.214Z,-80
2016-08-15T13:32:27.207Z,-80
2016-08-15T13:33:27.248Z,-80
2016-08-15T13:34:27.253Z,-80
2016-08-15T13:35:27.378Z,-80
2016-08-15T13:36:27.276Z,-80
2016-08-15T13:37:27.183Z,-79
2016-08-15T13:38:27.201Z,-80
2016-08-15T13:39:27.103Z,-79
2016-08-15T13:40:27.239Z,-80
2016-08-15T13:41:27.167Z,-80
2016-08-15T13:42:27.308Z,-80
2016-08-15T13:43:27.142Z,-80
2016-08-15T13:44:27.210Z,-80
2016-08-15T13:45:27.141Z,-80
2016-08-15T13:46:27.195Z,-80
2016-08-15T13:47:27.348Z,-80
2016-08-15T13:48:27.262Z,-79